Relevés horaires St-Hubert (Belgique)


Relevés horaires à St-Hubert - Dimanche 24 Oct. 2021
Heure UTC1 Température [°C] Vent [km/h] Hum. [%] Pres.4 [hPa] Visi. [Km] Nébu. [octa] Préc.5 [mm] Cond.
2m. Res. Ros. Dir.2 Vit. Moy. Raf.3
23:00 6.0 5 3.1 SSO 5.6 7.4 13.0 82 1022.4(0.1/3h) 45 0/8 -- --
22:00 6.1 5.1 3.3 SSO 5.6 5.6 9.3 82 1022.4(-0.2/3h) 45 0/8 -- --
21:00 5.1 5.1 3.2 S 3.7 5.6 9.3 87 1022.5(-0.6/3h) 35 0/8 -- --
20:00 5.5 4.4 4.1 S 5.6 5.6 9.3 91 1022.4(-0.2/3h) 27 0/8 -- --
19:00 5.7 5.7 3.9 S 3.7 5.6 9.3 88 1022.7(0.0/3h) 30 0/8 -- --
18:00 6.3 6.3 4.1 S 3.7 9.3 16.7 86 1022.8(0.0/3h) 35 0/8 0/12h
--
17:00 7.1 6.3 4.1 S 5.6 5.6 11.1 81 1022.2(-1.1/3h) 40 0/8 -- --
16:00 9.1 8.6 3.6 S 5.6 7.4 11.1 68 1021.9(-1.1/3h) 35 0/8 -- --
15:00 10.1 9.3 3.6 SSE 7.4 9.3 16.7 64 1021.9(-1.2/3h) 35 0/8 -- --
14:00 10.3 9.9 3.0 S 5.6 7.4 16.7 60 1022.6(-0.7/3h) 40 0/8 -- --
13:00 9.9 9 3.1 S 7.4 9.3 16.7 63 1022.9(-0.3/3h) 35 0/8 -- --
12:00 9.5 8.2 3.4 S 9.3 13.0 20.4 66 1023.3(-0.6/3h) 40 0/8 0/6h
--
11:00 8.4 6.9 2.5 S 9.3 9.3 16.7 66 1023.8(-0.4/3h) 30 0/8 -- --
10:00 7.2 5.4 2.5 SE 9.3 13.0 20.4 72 1023.9(-0.5/3h) 30 0/8 -- --
09:00 5.3 2.8 1.7 SSE 11.1 11.1 16.7 78 1025(0.1/3h) 35 0/8 -- --
08:00 4.1 1.3 1.0 SE 11.1 11.1 16.7 80 1025.3(-0.3/3h) 30 0/8 -- --
07:00 3.1 0.1 0.4 SE 11.1 11.1 16.7 82 1025.5(-0.8/3h) 35 0/8 -- --
06:00 2.9 -0.1 0.5 SE 11.1 13.0 18.5 84 1025.7(-1.1/3h) 40 0/8 0/12h
--
05:00 3.3 0.4 0.6 SE 11.1 13.0 18.5 82 1025.9(-1.7/3h) 35 0/8 -- --
04:00 3.8 1 0.8 SE 11.1 13.0 16.7 81 1026.2(-1.9/3h) 45 0/8 -- --
03:00 3.5 1 0.7 ESE 9.3 9.3 16.7 82 1026.8(-1.7/3h) 40 0/8 -- --
02:00 3.7 1.8 1.3 ESE 7.4 9.3 14.8 84 1027.5(-1.3/3h) 40 0/8 -- --
01:00 4.2 1.9 2.1 SE 9.3 9.3 14.8 86 1028.1(-1.0/3h) 35 0/8 -- --
00:00 4.0 2.1 2.3 ESE 7.4 7.4 11.1 89 1028.5(-0.6/3h) 35 0/8 0/6h
0/24h
--

1 Coordinated Universal Time. Actuellement il est 19:00 locale et 18:00 UTC.

2 Le vent souffle depuis la direction indiquée vers la direction oposée.

3 Les rafales max. sont disponible 40 min après l'heure du relevé.

4 Pour les stations d'altitude (plus de 600m) le géopotentiel du niveau le plus proche de la pression obligatoire est indiqué.

5 Les stations disposant d'un diffuseur peuvent indiquer "trace". Cela signifie que des précipitations ont touchés le sol mais que la quantité est inférieure à 0.1 mm.

Récapitulatif de la journée
Température [°C] Vent [km/h] Ensoleillement4 [h] Precipitations totale5 [mm] Pression [Hpa]
Min1 Max.2 Moy.3 Max. Min Max.
2.8 10.7 9.2 20.4 0 h 0 min 0 1021.9 1028.5

1 Température minimale relevée entre 18:00 UTC la veille et 18:00 UTC le jour donné.

2 Température maximale relevée entre 06:00 UTC le jour donné et 06:00 UTC le lendemain.

3 Vent moyen de la journée basé sur les relevés horaires.

4 Ensoleillement en heures relevé entre 06:00 UTC la veille et 06:00 UTC le jour donné.

5 Précipitations totales tombées entre 06:00 UTC la jour donné et 06:00 UTC le lendemain.

Graphiques horaires